Karla A — TCCR8 — position and weather

sailwx.info

Track history (hours):
 
Tides and Currents Weather Stations Pressure Air Temp Water Temp Dewpoint Dewpoint Depression Visibility Wind Speed Wind Dir Waves Ship Positions

Karla A

Last reported at 2017-Feb-18 11:28 UTC. Time now 2017-Feb-25 20:48 UTC.
Position N 34°22' E 033°10'.

Length 155 m; draft 8.9 m.

Type: Ship (hazmat cat A). MMSI: 271000744.

Date/timePositionNaut miles runAvg speedWind from/ knotsBaromVisibWave heightAir tempDewpointWater temp
2017-Feb-18 11:28N 34°22' E 033°10'1111.6
2017-Feb-18 10:33N 34°24' E 032°57'1212.2
2017-Feb-18 09:33N 34°24' E 032°42'37511.7
2017-Feb-17 01:31N 37°23' E 025°55'  
2017-Feb-11 19:31N 40°57' E 028°52'0 0.0
2017-Feb-11 17:30N 40°57' E 028°52'0 0.0
2017-Feb-11 11:25N 40°57' E 028°52'1 0.1
2017-Feb-11 06:11N 40°56' E 028°51'5 7.9
2017-Feb-11 05:33N 40°52' E 028°48'26110.4
2017-Feb-10 04:23N 37°57' E 024°38'910.5
2017-Feb-10 03:33N 37°49' E 024°34'1110.8
2017-Feb-10 02:33N 37°38' E 024°29'1311.3
2017-Feb-10 01:23N 37°28' E 024°20'1011.5
2017-Feb-10 00:33N 37°21' E 024°11'  
Track history (hours):
 
Tides and Currents Weather Stations Pressure Air Temp Water Temp Dewpoint Dewpoint Depression Visibility Wind Speed Wind Dir Waves Ship Positions

Karla A

Last reported at 2017-Feb-18 11:28 UTC. Time now 2017-Feb-25 20:48 UTC.
Position N 34°22' E 033°10'.

Length 155 m; draft 8.9 m.

Type: Ship (hazmat cat A). MMSI: 271000744.

Date/timePositionNaut miles runAvg speedWind from/ knotsBaromVisibWave heightAir tempDewpointWater temp
2017-Feb-18 11:28N 34°22' E 033°10'1111.6
2017-Feb-18 10:33N 34°24' E 032°57'1212.2
2017-Feb-18 09:33N 34°24' E 032°42'37511.7
2017-Feb-17 01:31N 37°23' E 025°55'  
2017-Feb-11 19:31N 40°57' E 028°52'0 0.0
2017-Feb-11 17:30N 40°57' E 028°52'0 0.0
2017-Feb-11 11:25N 40°57' E 028°52'1 0.1
2017-Feb-11 06:11N 40°56' E 028°51'5 7.9
2017-Feb-11 05:33N 40°52' E 028°48'26110.4
2017-Feb-10 04:23N 37°57' E 024°38'910.5
2017-Feb-10 03:33N 37°49' E 024°34'1110.8
2017-Feb-10 02:33N 37°38' E 024°29'1311.3
2017-Feb-10 01:23N 37°28' E 024°20'1011.5
2017-Feb-10 00:33N 37°21' E 024°11'  

Dump ship's entire track history